Dades meteomassalio
Diari Summary for Maig 30, 2017 Units:  English    Metric   Both
« Previous Day
Next Day »
Diari Semanal Mensual Anual Personalitzat
  Maxima: Minima: Mijana:
Temperatura: TemperatureC °F 12.8 °F 19.9 °F
Rosada: DewpointC °F 8.1 °F 11.3 °F
Humitat: Humidity % 38 % 59 %
Velocitat del vent: WindSpeedKMH mph 0.0 mph 5.8 mph
Racha vent: WindSpeedGustKMH mph - -
Vent:- - SE
Pressio: PressurehPa in 1013.8 in -
Pluja: 0.0 in    
Historical Graphs
 
 
Tabular Data for Maig 30, 2017
Time Temperature Dew Point Pressure Wind Wind Speed Wind Gust Humidity Rainfall Rate (Hourly) solar Conditions
TemperatureC °F DewpointC °F PressurehPa in Calm     Humidity % HourlyPrecipMM in SolarRadiationWatts/m^2 W/m2 Conditions
00:02 18.6 °F 11.2 °F 1014.4 in Calm     62 % 0.0 in 0.0 W/m2 CLR
00:07 18.3 °F 11.2 °F 1014.8 in Calm     63 % 0.0 in 0.0 W/m2 CLR
00:12 18.2 °F 11.3 °F 1014.8 in Calm     64 % 0.0 in 0.0 W/m2 CLR
00:17 18.2 °F 11.2 °F 1014.8 in Calm     64 % 0.0 in 0.0 W/m2 CLR
00:22 18.1 °F 11.1 °F 1014.8 in Calm     64 % 0.0 in 0.0 W/m2 CLR
00:27 18.0 °F 10.8 °F 1014.8 in Calm     63 % 0.0 in 0.0 W/m2 CLR
00:32 17.9 °F 11.1 °F 1014.4 in Calm     64 % 0.0 in 0.0 W/m2 CLR
00:37 17.9 °F 11.5 °F 1014.4 in Calm     66 % 0.0 in 0.0 W/m2 CLR
00:42 17.9 °F 11.5 °F 1014.8 in Calm     66 % 0.0 in 0.0 W/m2 CLR
00:47 17.9 °F 11.0 °F 1014.8 in Calm     64 % 0.0 in 0.0 W/m2 CLR
00:52 17.8 °F 11.4 °F 1014.8 in Calm     66 % 0.0 in 0.0 W/m2 CLR
00:57 17.8 °F 10.9 °F 1014.8 in Calm     64 % 0.0 in 0.0 W/m2 CLR
01:02 17.7 °F 11.0 °F 1014.8 in Calm     65 % 0.0 in 0.0 W/m2 CLR
01:07 17.6 °F 11.1 °F 1014.8 in Calm     66 % 0.0 in 0.0 W/m2 CLR
01:12 17.4 °F 10.8 °F 1014.8 in Calm     65 % 0.0 in 0.0 W/m2 CLR
01:17 17.3 °F 11.2 °F 1014.8 in Calm     67 % 0.0 in 0.0 W/m2 CLR
01:22 17.2 °F 10.8 °F 1014.8 in Calm     66 % 0.0 in 0.0 W/m2 CLR
01:27 17.1 °F 10.7 °F 1014.8 in Calm     66 % 0.0 in 0.0 W/m2 CLR
01:32 16.8 °F 10.4 °F 1014.8 in Calm     66 % 0.0 in 0.0 W/m2 CLR
01:37 16.7 °F 10.1 °F 1014.8 in Calm     65 % 0.0 in 0.0 W/m2 CLR
01:42 16.6 °F 10.2 °F 1014.8 in Calm     66 % 0.0 in 0.0 W/m2 CLR
01:47 16.4 °F 9.8 °F 1014.8 in Calm     65 % 0.0 in 0.0 W/m2 CLR
01:52 16.3 °F 9.7 °F 1014.8 in Calm     65 % 0.0 in 0.0 W/m2 CLR
01:57 16.1 °F 9.9 °F 1014.8 in Calm     67 % 0.0 in 0.0 W/m2 CLR
02:02 15.9 °F 9.8 °F 1014.8 in Calm     67 % 0.0 in 0.0 W/m2 CLR
02:07 15.8 °F 9.7 °F 1014.4 in Calm     67 % 0.0 in 0.0 W/m2 CLR
02:12 15.8 °F 9.4 °F 1014.4 in Calm     66 % 0.0 in 0.0 W/m2 CLR
02:17 15.7 °F 9.6 °F 1014.4 in Calm     67 % 0.0 in 0.0 W/m2 CLR
02:22 15.6 °F 9.5 °F 1014.4 in Calm     67 % 0.0 in 0.0 W/m2 CLR
02:27 15.6 °F 9.5 °F 1014.4 in Calm     67 % 0.0 in 0.0 W/m2 CLR
02:32 15.6 °F 9.4 °F 1014.4 in Calm     67 % 0.0 in 0.0 W/m2 CLR
02:37 15.4 °F 9.3 °F 1014.4 in Calm     67 % 0.0 in 0.0 W/m2 CLR
02:42 15.3 °F 9.0 °F 1014.4 in Calm     66 % 0.0 in 0.0 W/m2 CLR
02:47 15.3 °F 8.9 °F 1014.4 in Calm     66 % 0.0 in 0.0 W/m2 CLR
02:52 15.1 °F 8.8 °F 1014.4 in WSW 5.6 mph 5.6 mph 66 % 0.0 in 0.0 W/m2 CLR
02:57 15.2 °F 9.3 °F 1014.4 in SW 7.4 mph 7.4 mph 68 % 0.0 in 0.0 W/m2 CLR
03:02 15.7 °F 9.6 °F 1014.4 in SW 1.9 mph   67 % 0.0 in 0.0 W/m2 CLR
03:07 15.8 °F 9.2 °F 1014.4 in Calm     65 % 0.0 in 0.0 W/m2 CLR
03:12 15.7 °F 9.2 °F 1014.4 in Calm     65 % 0.0 in 0.0 W/m2 CLR
03:17 15.6 °F 9.2 °F 1014.1 in Calm     66 % 0.0 in 0.0 W/m2 CLR
03:22 15.3 °F 9.0 °F 1014.1 in Calm     66 % 0.0 in 0.0 W/m2 CLR
03:27 15.2 °F 8.9 °F 1014.1 in Calm     66 % 0.0 in 0.0 W/m2 CLR
03:32 15.1 °F 8.7 °F 1014.1 in Calm     66 % 0.0 in 0.0 W/m2 CLR
03:37 14.9 °F 8.9 °F 1014.1 in Calm     67 % 0.0 in 0.0 W/m2 CLR
03:42 14.8 °F 8.8 °F 1014.1 in Calm     67 % 0.0 in 0.0 W/m2 CLR
03:47 14.8 °F 8.9 °F 1014.1 in Calm     68 % 0.0 in 0.0 W/m2 CLR
03:52 14.7 °F 9.1 °F 1013.8 in Calm     69 % 0.0 in 0.0 W/m2 CLR
03:57 14.6 °F 8.6 °F 1013.8 in Calm     67 % 0.0 in 0.0 W/m2 CLR
04:02 14.5 °F 8.4 °F 1013.8 in Calm     67 % 0.0 in 0.0 W/m2 CLR
04:07 14.4 °F 8.6 °F 1013.8 in Calm     68 % 0.0 in 0.0 W/m2 CLR
04:12 14.3 °F 8.4 °F 1013.8 in Calm     68 % 0.0 in 0.0 W/m2 CLR
04:17 14.1 °F 8.5 °F 1014.1 in Calm     69 % 0.0 in 0.0 W/m2 CLR
04:22 14.0 °F 8.6 °F 1014.1 in Calm     70 % 0.0 in 0.0 W/m2 CLR
04:27 13.9 °F 8.6 °F 1014.1 in Calm     70 % 0.0 in 0.0 W/m2 CLR
04:32 13.9 °F 8.3 °F 1014.1 in Calm     69 % 0.0 in 0.0 W/m2 CLR
04:37 13.9 °F 8.3 °F 1014.1 in Calm     69 % 0.0 in 0.0 W/m2 CLR
04:42 13.9 °F 8.3 °F 1014.1 in Calm     69 % 0.0 in 0.0 W/m2 CLR
04:47 13.9 °F 8.3 °F 1014.1 in Calm     69 % 0.0 in 0.0 W/m2 CLR
04:52 13.9 °F 8.3 °F 1014.1 in Calm     69 % 0.0 in 0.0 W/m2 CLR
04:57 13.8 °F 8.2 °F 1014.1 in Calm     69 % 0.0 in 0.0 W/m2 CLR
05:02 13.7 °F 8.1 °F 1014.1 in WNW 1.9 mph   69 % 0.0 in 0.0 W/m2 CLR
05:07 13.8 °F 8.8 °F 1014.1 in Calm     72 % 0.0 in 0.0 W/m2 CLR
05:12 13.8 °F 8.4 °F 1014.1 in Calm     70 % 0.0 in 0.0 W/m2 CLR
05:17 13.8 °F 8.4 °F 1014.4 in Calm     70 % 0.0 in 0.0 W/m2 CLR
05:22 13.7 °F 8.3 °F 1014.4 in Calm     70 % 0.0 in 0.0 W/m2 CLR
05:27 13.7 °F 8.5 °F 1014.4 in Calm     71 % 0.0 in 0.0 W/m2 CLR
05:32 13.6 °F 8.4 °F 1014.4 in Calm     71 % 0.0 in 0.0 W/m2 CLR
05:37 13.4 °F 8.3 °F 1014.4 in Calm     71 % 0.0 in 0.0 W/m2 CLR
05:42 13.3 °F 8.2 °F 1014.4 in Calm     71 % 0.0 in 0.0 W/m2 CLR
05:47 13.3 °F 8.4 °F 1014.8 in Calm     72 % 0.0 in 0.0 W/m2 CLR
05:52 13.3 °F 8.3 °F 1014.8 in Calm     72 % 0.0 in 0.0 W/m2 CLR
05:57 13.1 °F 8.2 °F 1014.8 in Calm     72 % 0.0 in 0.0 W/m2 CLR
06:02 13.1 °F 8.5 °F 1014.8 in Calm     74 % 0.0 in 0.0 W/m2 CLR
06:07 13.0 °F 8.4 °F 1014.8 in Calm     74 % 0.0 in 0.0 W/m2 CLR
06:12 12.9 °F 8.6 °F 1014.8 in Calm     75 % 0.0 in 0.0 W/m2 CLR
06:17 12.8 °F 8.7 °F 1014.8 in Calm     76 % 0.0 in 0.0 W/m2 CLR
06:22 12.8 °F 8.9 °F 1014.8 in Calm     77 % 0.0 in 0.0 W/m2 OVC
06:27 12.8 °F 9.1 °F 1014.8 in Calm     78 % 0.0 in 0.0 W/m2 OVC
06:33 12.8 °F 9.1 °F 1014.8 in Calm     78 % 0.0 in 0.0 W/m2 OVC
06:38 13.1 °F 10.1 °F 1014.8 in WSW 7.4 mph 7.4 mph 82 % 0.0 in 0.0 W/m2 OVC
06:43 13.6 °F 10.6 °F 1014.8 in Calm     82 % 0.0 in 5.0 W/m2 OVC
06:48 13.6 °F 10.0 °F 1014.8 in Calm     79 % 0.0 in 5.0 W/m2 OVC
06:53 13.4 °F 9.8 °F 1014.8 in Calm     79 % 0.0 in 7.0 W/m2 BKN
06:58 13.3 °F 9.9 °F 1015.1 in Calm     80 % 0.0 in 9.0 W/m2 BKN
07:03 13.2 °F 10.0 °F 1015.1 in Calm     81 % 0.0 in 9.0 W/m2 BKN
07:08 13.1 °F 10.1 °F 1015.1 in Calm     82 % 0.0 in 11.0 W/m2 BKN
07:13 13.1 °F 10.1 °F 1015.1 in Calm     82 % 0.0 in 12.0 W/m2 BKN
07:18 13.2 °F 10.4 °F 1015.1 in Calm     83 % 0.0 in 12.0 W/m2 BKN
07:23 13.3 °F 10.3 °F 1015.1 in Calm     82 % 0.0 in 16.0 W/m2 BKN
07:28 13.4 °F 10.4 °F 1015.1 in Calm     82 % 0.0 in 21.0 W/m2 BKN
07:33 13.4 °F 10.4 °F 1015.1 in Calm     82 % 0.0 in 28.0 W/m2 BKN
07:38 13.3 °F 10.3 °F 1015.5 in Calm     82 % 0.0 in 35.0 W/m2 BKN
07:43 13.3 °F 10.5 °F 1015.5 in Calm     83 % 0.0 in 40.0 W/m2 BKN
07:48 13.4 °F 10.8 °F 1015.5 in Calm     84 % 0.0 in 53.0 W/m2 BKN
07:53 13.6 °F 10.8 °F 1015.5 in Calm     83 % 0.0 in 109.0 W/m2 SCT
07:58 13.8 °F 11.0 °F 1015.5 in Calm     83 % 0.0 in 70.0 W/m2 CLR
08:03 14.1 °F 11.2 °F 1015.5 in Calm     83 % 0.0 in 77.0 W/m2 CLR
08:08 14.2 °F 11.2 °F 1015.8 in Calm     82 % 0.0 in 74.0 W/m2 FEW
08:13 14.4 °F 11.3 °F 1015.8 in Calm     82 % 0.0 in 88.0 W/m2 FEW
08:18 14.6 °F 10.8 °F 1015.8 in Calm     78 % 0.0 in 139.0 W/m2 CLR
08:23 14.8 °F 10.6 °F 1015.8 in Calm     76 % 0.0 in 104.0 W/m2 CLR
08:28 15.0 °F 10.6 °F 1015.8 in Calm     75 % 0.0 in 123.0 W/m2 CLR
08:33 15.3 °F 10.7 °F 1015.8 in Calm     74 % 0.0 in 156.0 W/m2 CLR
08:38 15.6 °F 11.0 °F 1015.8 in Calm     74 % 0.0 in 287.0 W/m2 CLR
08:43 16.3 °F 11.4 °F 1015.8 in Calm     73 % 0.0 in 380.0 W/m2 CLR
08:48 16.8 °F 11.1 °F 1015.8 in Calm     69 % 0.0 in 339.0 W/m2 CLR
08:53 17.1 °F 11.4 °F 1015.8 in Calm     69 % 0.0 in 178.0 W/m2 CLR
08:58 17.3 °F 11.6 °F 1015.8 in Calm     69 % 0.0 in 246.0 W/m2 CLR
09:03 17.5 °F 11.7 °F 1015.8 in Calm     69 % 0.0 in 385.0 W/m2 CLR
09:08 17.8 °F 12.1 °F 1015.8 in Calm     69 % 0.0 in 253.0 W/m2 CLR
09:13 18.2 °F 11.9 °F 1015.8 in Calm     67 % 0.0 in 213.0 W/m2 CLR
09:18 18.3 °F 12.1 °F 1015.8 in Calm     67 % 0.0 in 186.0 W/m2 CLR
09:23 18.1 °F 11.9 °F 1015.8 in Calm     67 % 0.0 in 171.0 W/m2 CLR
09:28 18.1 °F 11.8 °F 1015.8 in Calm     67 % 0.0 in 229.0 W/m2 CLR
09:33 18.4 °F 12.4 °F 1015.8 in Calm     68 % 0.0 in 188.0 W/m2 CLR
09:38 18.6 °F 12.6 °F 1016.1 in Calm     68 % 0.0 in 227.0 W/m2 CLR
09:43 19.0 °F 12.7 °F 1016.1 in Calm     67 % 0.0 in 603.0 W/m2 CLR
09:48 19.7 °F 13.4 °F 1016.1 in Calm     67 % 0.0 in 628.0 W/m2 CLR
09:53 20.3 °F 13.2 °F 1016.1 in ENE 5.6 mph 5.6 mph 64 % 0.0 in 315.0 W/m2 CLR
09:58 20.5 °F 13.9 °F 1016.1 in Calm     66 % 0.0 in 684.0 W/m2 CLR
10:03 21.0 °F 13.9 °F 1016.1 in ENE 7.4 mph 7.4 mph 64 % 0.0 in 701.0 W/m2 CLR
10:08 21.4 °F 13.8 °F 1016.1 in ENE 9.3 mph 9.3 mph 62 % 0.0 in 714.0 W/m2 CLR
10:13 21.7 °F 14.1 °F 1015.8 in NNE 5.6 mph 5.6 mph 62 % 0.0 in 707.0 W/m2 CLR
10:18 22.0 °F 14.1 °F 1016.1 in NE 7.4 mph 7.4 mph 61 % 0.0 in 710.0 W/m2 CLR
10:23 22.2 °F 14.1 °F 1016.1 in East 9.3 mph 9.3 mph 60 % 0.0 in 339.0 W/m2 CLR
10:28 21.9 °F 13.8 °F 1016.1 in ENE 5.6 mph   60 % 0.0 in 415.0 W/m2 CLR
10:33 22.1 °F 13.9 °F 1016.1 in ENE 5.6 mph   60 % 0.0 in 724.0 W/m2 CLR
10:38 22.6 °F 14.1 °F 1016.1 in NE 11.1 mph 11.1 mph 59 % 0.0 in 724.0 W/m2 CLR
10:43 22.6 °F 14.2 °F 1015.8 in NE 7.4 mph 7.4 mph 59 % 0.0 in 742.0 W/m2 CLR
10:49 22.8 °F 14.1 °F 1015.8 in ENE 9.3 mph 9.3 mph 58 % 0.0 in 758.0 W/m2 CLR
10:54 22.8 °F 13.8 °F 1015.8 in East 3.7 mph 3.7 mph 57 % 0.0 in 747.0 W/m2 CLR
10:59 22.4 °F 14.0 °F 1016.1 in Calm     59 % 0.0 in 443.0 W/m2 CLR
11:04 22.1 °F 13.7 °F 1015.8 in South 3.7 mph   59 % 0.0 in 795.0 W/m2 CLR
11:09 22.2 °F 13.5 °F 1015.8 in ESE 5.6 mph   58 % 0.0 in 816.0 W/m2 CLR
11:14 22.3 °F 13.7 °F 1015.8 in NNW 5.6 mph 5.6 mph 58 % 0.0 in 807.0 W/m2 CLR
11:19 22.8 °F 13.8 °F 1015.8 in Calm     57 % 0.0 in 784.0 W/m2 CLR
11:24 23.1 °F 13.6 °F 1015.8 in North 9.3 mph 9.3 mph 55 % 0.0 in 816.0 W/m2 CLR
11:29 23.1 °F 13.5 °F 1015.8 in Calm     55 % 0.0 in 622.0 W/m2 CLR
11:34 23.1 °F 13.3 °F 1016.1 in West 9.3 mph 9.3 mph 54 % 0.0 in 708.0 W/m2 CLR
11:39 22.9 °F 13.1 °F 1016.1 in NNW 7.4 mph 7.4 mph 54 % 0.0 in 357.0 W/m2 CLR
11:44 22.8 °F 13.3 °F 1016.1 in Calm     55 % 0.0 in 476.0 W/m2 CLR
11:49 23.0 °F 13.4 °F 1016.1 in Calm     55 % 0.0 in 722.0 W/m2 CLR
11:54 23.5 °F 13.4 °F 1016.1 in SE 9.3 mph 9.3 mph 53 % 0.0 in 508.0 W/m2 CLR
11:59 23.4 °F 13.3 °F 1016.1 in NNE 9.3 mph 9.3 mph 53 % 0.0 in 515.0 W/m2 CLR
12:04 23.2 °F 12.8 °F 1016.1 in North 1.9 mph 1.9 mph 52 % 0.0 in 396.0 W/m2 CLR
12:09 23.2 °F 13.1 °F 1016.1 in Calm     53 % 0.0 in 371.0 W/m2 CLR
12:14 23.6 °F 13.2 °F 1016.1 in Calm     52 % 0.0 in 933.0 W/m2 CLR
12:19 23.9 °F 12.9 °F 1016.1 in Calm     50 % 0.0 in 898.0 W/m2 CLR
12:24 24.2 °F 13.1 °F 1016.1 in Calm     50 % 0.0 in 905.0 W/m2 CLR
12:29 24.4 °F 12.7 °F 1016.1 in NE 6.4 mph 6.4 mph 48 % 0.0 in 921.0 W/m2 CLR
12:34 24.6 °F 12.5 °F 1016.1 in WNW 7.4 mph 7.4 mph 47 % 0.0 in 949.0 W/m2 CLR
12:39 24.7 °F 12.3 °F 1015.8 in NW 13.0 mph 13.0 mph 46 % 0.0 in 944.0 W/m2 CLR
12:44 24.7 °F 12.3 °F 1015.8 in WNW 1.9 mph 1.9 mph 46 % 0.0 in 940.0 W/m2 CLR
12:49 24.8 °F 12.1 °F 1015.8 in NW 5.6 mph 5.6 mph 45 % 0.0 in 977.0 W/m2 CLR
12:59 25.0 °F 12.6 °F 1015.8 in ENE 8.0 mph 8.0 mph 46 % 0.0 in 373.0 W/m2 CLR
13:04 24.9 °F 12.5 °F 1015.8 in ESE 13.0 mph 13.0 mph 46 % 0.0 in 953.0 W/m2 CLR
13:09 25.1 °F 12.3 °F 1015.5 in East 11.1 mph 11.1 mph 45 % 0.0 in 1143.0 W/m2 CLR
13:14 25.2 °F 12.4 °F 1015.5 in East 5.6 mph 5.6 mph 45 % 0.0 in 1158.0 W/m2 CLR
13:16 25.2 °F 12.4 °F 1015.5 in Calm     45 % 0.0 in 1158.0 W/m2 CLR
13:21 25.4 °F 12.6 °F 1015.5 in East 1.9 mph 2.1 mph 45 % 0.0 in 645.0 W/m2 CLR
13:26 25.8 °F 12.2 °F 1015.5 in ESE 13.0 mph 13.0 mph 43 % 0.0 in 1136.0 W/m2 CLR
13:31 25.6 °F 12.1 °F 1015.5 in ENE 13.0 mph 13.0 mph 43 % 0.0 in 1090.0 W/m2 CLR
13:36 25.6 °F 12.1 °F 1015.5 in South 14.8 mph 14.8 mph 43 % 0.0 in 1076.0 W/m2 CLR
13:41 25.3 °F 12.2 °F 1015.1 in SSE 9.7 mph 9.7 mph 44 % 0.0 in 1041.0 W/m2 CLR
13:46 25.5 °F 12.0 °F 1015.1 in ENE 13.0 mph 13.0 mph 43 % 0.0 in 1004.0 W/m2 CLR
13:51 25.9 °F 12.4 °F 1015.1 in ENE 9.3 mph 9.3 mph 43 % 0.0 in 981.0 W/m2 CLR
13:56 26.3 °F 12.0 °F 1015.1 in NNE 9.3 mph 9.3 mph 41 % 0.0 in 1032.0 W/m2 CLR
14:01 26.8 °F 12.1 °F 1015.1 in ENE 11.1 mph 11.1 mph 40 % 0.0 in 1071.0 W/m2 CLR
14:06 27.0 °F 12.2 °F 1015.1 in Calm     40 % 0.0 in 770.0 W/m2 CLR
14:11 26.7 °F 12.0 °F 1015.1 in East 7.4 mph 7.4 mph 40 % 0.0 in 306.0 W/m2 CLR
14:16 26.3 °F 12.0 °F 1015.1 in ENE 13.0 mph 13.0 mph 41 % 0.0 in 318.0 W/m2 CLR
14:21 25.8 °F 12.2 °F 1015.1 in ENE 9.3 mph 9.3 mph 43 % 0.0 in 320.0 W/m2 CLR
14:26 25.7 °F 12.2 °F 1015.1 in NE 14.8 mph 14.8 mph 43 % 0.0 in 308.0 W/m2 CLR
14:31 25.6 °F 12.4 °F 1015.1 in NNE 14.8 mph 14.8 mph 44 % 0.0 in 306.0 W/m2 CLR
14:36 25.5 °F 12.3 °F 1015.1 in ENE 7.4 mph 7.4 mph 44 % 0.0 in 329.0 W/m2 CLR
14:41 25.7 °F 12.5 °F 1015.1 in NE 5.6 mph 5.6 mph 44 % 0.0 in 367.0 W/m2 CLR
14:46 25.8 °F 12.7 °F 1015.1 in ENE 8.0 mph 8.0 mph 44 % 0.0 in 294.0 W/m2 CLR
14:51 25.8 °F 12.2 °F 1014.8 in ENE 11.1 mph 11.1 mph 43 % 0.0 in 316.0 W/m2 CLR
14:56 25.6 °F 12.4 °F 1014.8 in SE 5.6 mph 5.6 mph 44 % 0.0 in 378.0 W/m2 CLR
15:01 25.6 °F 12.1 °F 1014.8 in SSE 5.6 mph 5.6 mph 43 % 0.0 in 415.0 W/m2 CLR
15:06 25.8 °F 12.3 °F 1014.8 in SE 9.3 mph 9.3 mph 43 % 0.0 in 492.0 W/m2 CLR
15:11 25.9 °F 12.0 °F 1014.4 in SE 18.5 mph 18.5 mph 42 % 0.0 in 390.0 W/m2 CLR
15:16 25.6 °F 12.1 °F 1014.8 in SE 24.1 mph 24.1 mph 43 % 0.0 in 459.0 W/m2 CLR
15:19 25.4 °F 12.2 °F 1014.8 in SE 22.2 mph 22.2 mph 44 % 0.0 in 997.0 W/m2 CLR
15:24 25.4 °F 12.3 °F 1014.8 in SSE 20.4 mph 20.4 mph 44 % 0.0 in 469.0 W/m2 CLR
15:29 25.8 °F 11.9 °F 1014.4 in ESE 16.1 mph 16.1 mph 42 % 0.0 in 396.0 W/m2 CLR
15:34 25.6 °F 12.1 °F 1014.4 in SSE 13.0 mph 13.0 mph 43 % 0.0 in 403.0 W/m2 CLR
15:39 25.8 °F 12.2 °F 1014.4 in ESE 6.4 mph 6.4 mph 43 % 0.0 in 673.0 W/m2 CLR
15:44 26.1 °F 12.2 °F 1014.4 in ESE 22.2 mph 22.2 mph 42 % 0.0 in 485.0 W/m2 CLR
15:45 26.1 °F 12.2 °F 1014.4 in ESE 22.2 mph 22.2 mph 42 % 0.0 in 571.0 W/m2 CLR
15:49 25.8 °F 11.9 °F 1014.4 in ESE 14.8 mph 14.8 mph 42 % 0.0 in 786.0 W/m2 CLR
15:54 26.2 °F 12.3 °F 1014.4 in ESE 13.0 mph 13.0 mph 42 % 0.0 in 1053.0 W/m2 CLR
15:59 26.4 °F 12.1 °F 1014.4 in ESE 18.5 mph 18.5 mph 41 % 0.0 in 438.0 W/m2 CLR
16:04 25.9 °F 11.7 °F 1014.8 in SE 27.8 mph 27.8 mph 41 % 0.0 in 378.0 W/m2 CLR
16:09 25.6 °F 11.7 °F 1014.4 in SE 11.3 mph 11.3 mph 42 % 0.0 in 336.0 W/m2 CLR
16:14 26.1 °F 12.2 °F 1014.8 in SE 22.2 mph 22.2 mph 42 % 0.0 in 995.0 W/m2 CLR
16:19 25.7 °F 11.1 °F 1014.8 in SSE 29.6 mph 29.6 mph 40 % 0.0 in 352.0 W/m2 CLR
16:24 25.4 °F 10.8 °F 1014.8 in SE 20.4 mph 20.4 mph 40 % 0.0 in 251.0 W/m2 CLR
16:29 25.5 °F 10.9 °F 1014.4 in South 16.7 mph 16.7 mph 40 % 0.0 in 417.0 W/m2 CLR
16:34 25.6 °F 10.6 °F 1014.8 in ESE 18.5 mph 18.5 mph 39 % 0.0 in 557.0 W/m2 CLR
16:40 25.7 °F 10.3 °F 1014.8 in SSE 25.9 mph 25.9 mph 38 % 0.0 in 735.0 W/m2 CLR
16:45 25.8 °F 10.8 °F 1014.4 in SE 13.0 mph 13.0 mph 39 % 0.0 in 677.0 W/m2 CLR
16:50 26.1 °F 10.6 °F 1014.4 in SSE 13.0 mph 13.8 mph 38 % 0.0 in 745.0 W/m2 CLR
16:55 25.9 °F 11.3 °F 1014.4 in ESE 18.5 mph 18.5 mph 40 % 0.0 in 721.0 W/m2 CLR
16:59 26.2 °F 10.8 °F 1014.4 in ESE 13.0 mph 13.0 mph 38 % 0.0 in 696.0 W/m2 CLR
17:04 26.1 °F 10.7 °F 1014.8 in SE 29.6 mph 29.6 mph 38 % 0.0 in 707.0 W/m2 CLR
17:09 25.8 °F 10.4 °F 1014.8 in SE 27.8 mph 27.8 mph 38 % 0.0 in 694.0 W/m2 CLR
17:14 25.8 °F 10.4 °F 1014.8 in SE 24.1 mph 24.1 mph 38 % 0.0 in 680.0 W/m2 CLR
17:19 25.7 °F 10.3 °F 1014.4 in ESE 18.5 mph 18.5 mph 38 % 0.0 in 673.0 W/m2 CLR
17:24 25.6 °F 10.2 °F 1014.8 in ESE 27.8 mph 27.8 mph 38 % 0.0 in 659.0 W/m2 CLR
17:29 25.4 °F 10.1 °F 1014.8 in SE 22.2 mph 22.2 mph 38 % 0.0 in 621.0 W/m2 CLR
17:34 25.3 °F 9.9 °F 1014.8 in ESE 22.2 mph 22.2 mph 38 % 0.0 in 575.0 W/m2 CLR
17:39 25.3 °F 10.4 °F 1014.4 in SE 24.1 mph 24.1 mph 39 % 0.0 in 547.0 W/m2 CLR
17:45 25.4 °F 11.2 °F 1014.8 in SE 20.9 mph 20.9 mph 41 % 0.0 in 545.0 W/m2 CLR
17:50 25.3 °F 11.5 °F 1014.8 in ESE 24.1 mph 24.1 mph 42 % 0.0 in 149.0 W/m2 CLR
17:55 25.0 °F 11.2 °F 1014.8 in ESE 18.5 mph 18.5 mph 42 % 0.0 in 183.0 W/m2 CLR
18:00 25.3 °F 11.4 °F 1014.8 in South 18.5 mph 18.5 mph 42 % 0.0 in 540.0 W/m2 CLR
18:05 25.4 °F 11.6 °F 1014.8 in SE 18.5 mph 18.5 mph 42 % 0.0 in 568.0 W/m2 CLR
18:10 25.4 °F 11.6 °F 1014.8 in SE 18.5 mph 18.5 mph 42 % 0.0 in 246.0 W/m2 CLR
18:15 25.2 °F 11.7 °F 1014.8 in ESE 22.2 mph 22.2 mph 43 % 0.0 in 211.0 W/m2 CLR
18:20 24.8 °F 12.1 °F 1015.1 in SE 22.2 mph 22.2 mph 45 % 0.0 in 146.0 W/m2 CLR
18:25 24.6 °F 12.2 °F 1015.1 in SE 22.2 mph 22.2 mph 46 % 0.0 in 244.0 W/m2 CLR
18:30 24.4 °F 12.1 °F 1015.1 in SE 20.4 mph 20.4 mph 46 % 0.0 in 455.0 W/m2 CLR
18:35 24.4 °F 12.3 °F 1015.1 in SSE 20.4 mph 20.4 mph 47 % 0.0 in 454.0 W/m2 CLR
18:40 24.3 °F 12.3 °F 1015.1 in ESE 24.1 mph 24.1 mph 47 % 0.0 in 179.0 W/m2 CLR
18:45 24.1 °F 12.4 °F 1015.1 in SSE 24.1 mph 24.1 mph 48 % 0.0 in 120.0 W/m2 CLR
18:50 24.1 °F 12.4 °F 1015.1 in SSE 22.2 mph 22.2 mph 48 % 0.0 in 218.0 W/m2 CLR
18:55 23.8 °F 12.2 °F 1015.1 in SE 20.4 mph 20.4 mph 48 % 0.0 in 58.0 W/m2 CLR
19:00 23.8 °F 12.2 °F 1015.5 in SSE 13.0 mph 13.0 mph 48 % 0.0 in 58.0 W/m2 FEW
19:05 23.8 °F 12.1 °F 1015.5 in SSE 16.7 mph 16.7 mph 48 % 0.0 in 35.0 W/m2 SCT
19:07 23.8 °F 12.1 °F 1015.5 in SSE 19.3 mph 19.3 mph 48 % 0.0 in 32.0 W/m2 SCT
19:12 23.6 °F 11.9 °F 1015.5 in SSW 18.5 mph 18.5 mph 48 % 0.0 in 26.0 W/m2 BKN
19:17 23.5 °F 12.2 °F 1015.8 in South 14.8 mph 14.8 mph 49 % 0.0 in 21.0 W/m2 BKN
19:22 23.4 °F 12.1 °F 1015.8 in South 9.3 mph 9.3 mph 49 % 0.0 in 21.0 W/m2 BKN
19:27 23.3 °F 11.7 °F 1016.1 in Calm     48 % 0.0 in 21.0 W/m2 BKN
19:32 22.8 °F 13.0 °F 1016.5 in WNW 25.9 mph 25.9 mph 54 % 0.0 in 19.0 W/m2 BKN
19:37 21.8 °F 13.2 °F 1016.5 in WNW 5.6 mph   58 % 0.0 in 19.0 W/m2 BKN
19:42 21.3 °F 12.7 °F 1016.1 in WNW 20.4 mph 20.4 mph 58 % 0.0 in 26.0 W/m2 BKN
19:47 21.2 °F 12.6 °F 1016.1 in NW 22.2 mph 22.2 mph 58 % 0.0 in 37.0 W/m2 BKN
19:52 21.1 °F 13.1 °F 1016.1 in West 16.7 mph 16.7 mph 60 % 0.0 in 42.0 W/m2 BKN
19:57 21.1 °F 13.7 °F 1016.1 in SW 5.6 mph 5.6 mph 63 % 0.0 in 62.0 W/m2 BKN
20:02 20.6 °F 13.8 °F 1015.8 in SW 7.4 mph 7.4 mph 65 % 0.0 in 81.0 W/m2 SCT
20:07 20.3 °F 13.7 °F 1015.8 in WSW 3.7 mph 3.7 mph 66 % 0.0 in 88.0 W/m2 FEW
20:12 20.2 °F 13.8 °F 1015.8 in Calm     67 % 0.0 in 84.0 W/m2 CLR
20:17 20.1 °F 13.6 °F 1015.8 in Calm     66 % 0.0 in 84.0 W/m2 CLR
20:22 20.2 °F 13.6 °F 1015.8 in Calm     66 % 0.0 in 69.0 W/m2 FEW
20:27 20.3 °F 13.5 °F 1015.8 in Calm     65 % 0.0 in 54.0 W/m2 SCT
20:32 20.4 °F 13.4 °F 1015.8 in Calm     64 % 0.0 in 44.0 W/m2 SCT
20:42 20.8 °F 13.2 °F 1015.8 in Calm     62 % 0.0 in 44.0 W/m2 BKN
20:47 21.0 °F 12.9 °F 1016.1 in Calm     60 % 0.0 in 30.0 W/m2 BKN
20:52 21.1 °F 13.1 °F 1016.1 in Calm     60 % 0.0 in 21.0 W/m2 BKN
20:57 21.2 °F 13.2 °F 1016.1 in Calm     60 % 0.0 in 16.0 W/m2 BKN
21:02 21.2 °F 13.2 °F 1016.1 in Calm     60 % 0.0 in 11.0 W/m2 BKN
21:07 21.2 °F 12.6 °F 1016.1 in Calm     58 % 0.0 in 7.0 W/m2 BKN
21:12 21.3 °F 11.9 °F 1016.1 in Calm     55 % 0.0 in 5.0 W/m2 OVC
21:17 21.4 °F 12.0 °F 1016.5 in Calm     55 % 0.0 in 0.0 W/m2 OVC
21:22 21.4 °F 11.7 °F 1016.1 in Calm     54 % 0.0 in 0.0 W/m2 OVC
21:27 21.5 °F 11.8 °F 1016.5 in SE 5.6 mph 5.6 mph 54 % 0.0 in 0.0 W/m2 OVC
21:32 21.4 °F 11.7 °F 1016.5 in ESE 5.6 mph 5.6 mph 54 % 0.0 in 0.0 W/m2 OVC
21:37 21.3 °F 11.9 °F 1016.5 in Calm     55 % 0.0 in 0.0 W/m2 CLR
21:42 21.2 °F 12.1 °F 1016.5 in ESE 5.6 mph 5.6 mph 56 % 0.0 in 0.0 W/m2 CLR
21:47 21.0 °F 11.9 °F 1016.5 in ESE 5.6 mph 5.6 mph 56 % 0.0 in 0.0 W/m2 CLR
21:52 20.9 °F 11.8 °F 1016.5 in SE 7.4 mph 7.4 mph 56 % 0.0 in 0.0 W/m2 CLR
21:57 20.7 °F 11.9 °F 1016.5 in Calm     57 % 0.0 in 0.0 W/m2 CLR
22:02 20.6 °F 11.8 °F 1016.5 in SE 8.0 mph 8.0 mph 57 % 0.0 in 0.0 W/m2 CLR
22:07 20.5 °F 11.7 °F 1016.5 in ESE 5.6 mph 5.6 mph 57 % 0.0 in 0.0 W/m2 CLR
22:12 20.4 °F 11.6 °F 1016.5 in SE 7.4 mph 7.4 mph 57 % 0.0 in 0.0 W/m2 CLR
22:17 20.3 °F 11.5 °F 1016.8 in Calm     57 % 0.0 in 0.0 W/m2 CLR
22:22 20.2 °F 11.4 °F 1016.8 in Calm     57 % 0.0 in 0.0 W/m2 CLR
22:27 20.1 °F 11.3 °F 1016.8 in Calm     57 % 0.0 in 0.0 W/m2 CLR
22:32 20.1 °F 11.6 °F 1016.8 in Calm     58 % 0.0 in 0.0 W/m2 CLR
22:37 20.0 °F 11.5 °F 1017.2 in Calm     58 % 0.0 in 0.0 W/m2 CLR
22:42 19.9 °F 11.4 °F 1017.2 in Calm     58 % 0.0 in 0.0 W/m2 CLR
22:52 19.7 °F 11.5 °F 1017.2 in Calm     59 % 0.0 in 0.0 W/m2 CLR
22:57 19.6 °F 11.6 °F 1017.2 in Calm     60 % 0.0 in 0.0 W/m2 CLR
22:59 19.5 °F 11.8 °F 1017.2 in Calm     61 % 0.0 in 0.0 W/m2 CLR
23:04 19.2 °F 11.8 °F 1017.5 in Calm     62 % 0.0 in 0.0 W/m2 CLR
23:09 19.0 °F 11.8 °F 1017.5 in Calm     63 % 0.0 in 0.0 W/m2 CLR
23:15 18.9 °F 11.7 °F 1017.5 in Calm     63 % 0.0 in 0.0 W/m2 CLR
23:20 18.8 °F 11.6 °F 1017.5 in Calm     63 % 0.0 in 0.0 W/m2 CLR
23:25 18.7 °F 11.7 °F 1017.5 in Calm     64 % 0.0 in 0.0 W/m2 CLR
23:30 18.5 °F 11.8 °F 1017.5 in Calm     65 % 0.0 in 0.0 W/m2 CLR
23:35 18.4 °F 11.9 °F 1017.5 in Calm     66 % 0.0 in 0.0 W/m2 CLR
23:40 18.3 °F 12.1 °F 1017.5 in Calm     67 % 0.0 in 0.0 W/m2 CLR
23:45 18.5 °F 12.3 °F 1017.8 in Calm     67 % 0.0 in 0.0 W/m2 CLR
23:50 18.3 °F 12.1 °F 1017.8 in Calm     67 % 0.0 in 0.0 W/m2 CLR
23:55 18.1 °F 12.1 °F 1017.8 in Calm     68 % 0.0 in 0.0 W/m2 CLR
Lo Temps de Massalio
Compliments of Weather Underground - 1.25 mb